Time;durP1;ratioP1;P1;durP2;ratioP2;P2;SDS_P1;SDS_P2;PMS_P1;PMS_P2;Temp;Humidity;BMP_temperature;BMP_pressure;BME280_temperature;BME280_humidity;BME280_pressure;Samples;Min_cycle;Max_cycle;Signal;HPM_P1;HPM_P2
2022/07/26 00:00:04;;;;;;;17.67;3.20;;;;;;;;;;6153765;23;20024;-83
2022/07/26 00:02:32;;;;;;;13.65;2.75;;;;;;;;;;6153407;23;20064;-83
2022/07/26 00:04:59;;;;;;;20.05;3.40;;;;;;;;;;6153791;23;20022;-83
2022/07/26 00:07:27;;;;;;;27.35;3.35;;;;;;;;;;6172295;23;20053;-82
2022/07/26 00:10:02;;;;;;;19.27;2.80;;;;;;;;;;6185162;23;20029;-83
2022/07/26 00:12:34;;;;;;;18.95;3.33;;;;;;;;;;6160355;23;20801;-83
2022/07/26 00:15:02;;;;;;;19.60;3.15;;;;;;;;;;6158401;23;20022;-83
2022/07/26 00:17:31;;;;;;;26.88;3.95;;;;;;;;;;6160055;23;20130;-83
2022/07/26 00:19:59;;;;;;;22.20;3.00;;;;;;;;;;6160230;23;20045;-83
2022/07/26 00:22:37;;;;;;;22.45;3.70;;;;;;;;;;6159959;23;20017;-83
2022/07/26 00:25:09;;;;;;;15.57;3.00;;;;;;;;;;6160169;23;20097;-83
2022/07/26 00:27:38;;;;;;;;;;;;;;;;;;6160194;23;20014;-83
2022/07/26 00:30:06;;;;;;;17.05;3.42;;;;;;;;;;6183488;23;45006;-83
2022/07/26 00:32:37;;;;;;;17.58;3.17;;;;;;;;;;6158474;23;20020;-82
2022/07/26 00:35:05;;;;;;;17.15;2.90;;;;;;;;;;6159564;23;20024;-82
2022/07/26 00:37:35;;;;;;;19.63;3.22;;;;;;;;;;6160869;23;20093;-83
2022/07/26 00:40:10;;;;;;;19.55;3.80;;;;;;;;;;6161877;23;20610;-82
2022/07/26 00:42:39;;;;;;;19.42;3.10;;;;;;;;;;6159939;23;20801;-83
2022/07/26 00:45:10;;;;;;;19.35;3.00;;;;;;;;;;6160204;23;20025;-83
2022/07/26 00:47:40;;;;;;;22.52;3.20;;;;;;;;;;6160643;23;20060;-82
2022/07/26 00:50:11;;;;;;;17.35;2.88;;;;;;;;;;6186690;23;20108;-83
2022/07/26 00:52:41;;;;;;;14.88;3.47;;;;;;;;;;6160392;23;20076;-83
2022/07/26 00:55:12;;;;;;;22.02;3.40;;;;;;;;;;6160839;23;20029;-83
2022/07/26 00:57:43;;;;;;;21.70;3.67;;;;;;;;;;6161117;23;20096;-82
2022/07/26 01:00:12;;;;;;;16.63;3.22;;;;;;;;;;6159638;23;20025;-83
2022/07/26 01:02:40;;;;;;;22.60;3.17;;;;;;;;;;6157736;23;20021;-83
2022/07/26 01:05:08;;;;;;;19.40;2.75;;;;;;;;;;6157667;23;20070;-83
2022/07/26 01:07:37;;;;;;;22.83;3.53;;;;;;;;;;6153851;23;20397;-83
2022/07/26 01:10:11;;;;;;;25.23;3.97;;;;;;;;;;6130498;23;20156;-83
2022/07/26 01:12:42;;;;;;;20.02;3.40;;;;;;;;;;6130784;23;20365;-83
2022/07/26 01:15:11;;;;;;;16.60;2.92;;;;;;;;;;6156392;23;20026;-83
2022/07/26 01:17:41;;;;;;;19.45;3.70;;;;;;;;;;6131122;23;20044;-83
2022/07/26 01:20:09;;;;;;;17.73;3.33;;;;;;;;;;6129571;23;20551;-83
2022/07/26 01:22:37;;;;;;;19.10;3.40;;;;;;;;;;6129384;23;20030;-83
2022/07/26 01:25:08;;;;;;;22.38;3.78;;;;;;;;;;6129147;23;20121;-83
2022/07/26 01:27:40;;;;;;;25.50;3.20;;;;;;;;;;6129638;23;20022;-83
2022/07/26 01:30:12;;;;;;;17.67;3.65;;;;;;;;;;6129336;23;20033;-83
2022/07/26 01:32:42;;;;;;;22.95;3.72;;;;;;;;;;6129420;23;20021;-83
2022/07/26 01:35:10;;;;;;;18.50;3.25;;;;;;;;;;6128535;23;20021;-83
2022/07/26 01:37:37;;;;;;;22.55;3.05;;;;;;;;;;6130897;23;20803;-83
2022/07/26 01:40:05;;;;;;;12.68;2.88;;;;;;;;;;6131530;23;20136;-83
2022/07/26 01:42:39;;;;;;;20.02;3.13;;;;;;;;;;6132439;23;20018;-83
2022/07/26 01:45:10;;;;;;;16.17;3.22;;;;;;;;;;6131114;23;20085;-83
2022/07/26 01:47:38;;;;;;;14.18;3.05;;;;;;;;;;6130977;23;20440;-83
2022/07/26 01:50:06;;;;;;;13.60;2.60;;;;;;;;;;6130675;23;20030;-83
2022/07/26 01:52:38;;;;;;;25.90;3.60;;;;;;;;;;6131101;23;20034;-83
2022/07/26 01:55:08;;;;;;;12.88;2.97;;;;;;;;;;6130586;23;20053;-83
2022/07/26 01:57:39;;;;;;;20.77;3.22;;;;;;;;;;6130377;23;20740;-83
2022/07/26 02:00:08;;;;;;;14.23;2.95;;;;;;;;;;6130778;23;20821;-83
2022/07/26 02:02:35;;;;;;;15.30;3.10;;;;;;;;;;6129224;23;20095;-83
2022/07/26 02:05:04;;;;;;;12.88;2.50;;;;;;;;;;6129471;23;21009;-83
2022/07/26 02:07:33;;;;;;;16.40;3.88;;;;;;;;;;6128576;23;20022;-83
2022/07/26 02:10:00;;;;;;;18.35;3.03;;;;;;;;;;6155536;23;20037;-83
2022/07/26 02:12:30;;;;;;;14.52;2.83;;;;;;;;;;6153911;23;20021;-83
2022/07/26 02:15:01;;;;;;;12.60;2.67;;;;;;;;;;6155166;23;20022;-83
2022/07/26 02:17:28;;;;;;;15.43;3.03;;;;;;;;;;6154795;23;20022;-84
2022/07/26 02:19:56;;;;;;;21.17;3.33;;;;;;;;;;6154761;23;20026;-83
2022/07/26 02:22:25;;;;;;;20.58;3.50;;;;;;;;;;6155793;23;20022;-83
2022/07/26 02:24:52;;;;;;;18.67;3.25;;;;;;;;;;6154850;23;20099;-83
2022/07/26 02:27:20;;;;;;;14.90;2.78;;;;;;;;;;6155676;23;20448;-83
2022/07/26 02:29:50;;;;;;;20.23;4.35;;;;;;;;;;6156905;23;20085;-84
2022/07/26 02:32:17;;;;;;;20.67;3.17;;;;;;;;;;6156214;23;20681;-83
2022/07/26 02:34:48;;;;;;;10.25;3.03;;;;;;;;;;6157405;23;20023;-83
2022/07/26 02:37:15;;;;;;;13.65;2.70;;;;;;;;;;6156120;23;20118;-83
2022/07/26 02:39:45;;;;;;;10.85;2.75;;;;;;;;;;6154627;23;20113;-83
2022/07/26 02:42:12;;;;;;;15.13;3.65;;;;;;;;;;6154752;23;20040;-83
2022/07/26 02:44:45;;;;;;;13.98;3.03;;;;;;;;;;6155532;23;20050;-83
2022/07/26 02:47:13;;;;;;;17.45;2.92;;;;;;;;;;6155050;23;20037;-83
2022/07/26 02:49:45;;;;;;;12.93;3.10;;;;;;;;;;6154889;23;20098;-83
2022/07/26 02:52:13;;;;;;;15.57;3.40;;;;;;;;;;6154966;23;20018;-83
2022/07/26 02:54:43;;;;;;;9.65;2.28;;;;;;;;;;6154564;23;20452;-83
2022/07/26 02:57:13;;;;;;;7.93;2.10;;;;;;;;;;6154759;23;20465;-83
2022/07/26 02:59:40;;;;;;;8.13;2.60;;;;;;;;;;6155094;23;20123;-82
2022/07/26 03:02:09;;;;;;;8.60;2.58;;;;;;;;;;6154148;23;20081;-83
2022/07/26 03:04:36;;;;;;;7.32;2.17;;;;;;;;;;6154237;23;20531;-83
2022/07/26 03:07:04;;;;;;;9.77;1.88;;;;;;;;;;6168370;23;20490;-83
2022/07/26 03:09:34;;;;;;;11.77;2.90;;;;;;;;;;6160662;23;20526;-83
2022/07/26 03:12:02;;;;;;;8.20;2.40;;;;;;;;;;6159682;23;20064;-83
2022/07/26 03:14:32;;;;;;;8.00;2.67;;;;;;;;;;6160007;23;20014;-83
2022/07/26 03:16:59;;;;;;;10.10;2.10;;;;;;;;;;6185978;23;20786;-83
2022/07/26 03:19:27;;;;;;;6.55;2.22;;;;;;;;;;6159524;23;20742;-83
2022/07/26 03:21:54;;;;;;;12.48;2.53;;;;;;;;;;6158922;23;20013;-83
2022/07/26 03:24:21;;;;;;;10.00;2.22;;;;;;;;;;6159119;23;20021;-83
2022/07/26 03:26:51;;;;;;;12.13;2.47;;;;;;;;;;6160061;23;20026;-83
2022/07/26 03:29:20;;;;;;;7.82;2.42;;;;;;;;;;6160408;23;20774;-83
2022/07/26 03:31:48;;;;;;;9.65;2.55;;;;;;;;;;6158663;23;20029;-83
2022/07/26 03:34:15;;;;;;;8.00;1.80;;;;;;;;;;6159168;23;20029;-83
2022/07/26 03:36:43;;;;;;;8.70;1.80;;;;;;;;;;6160205;23;20017;-83
2022/07/26 03:39:10;;;;;;;6.03;2.00;;;;;;;;;;6159771;23;20022;-82
2022/07/26 03:41:38;;;;;;;7.07;1.58;;;;;;;;;;6159075;23;20087;-83
2022/07/26 03:44:05;;;;;;;7.35;2.35;;;;;;;;;;6160324;23;20018;-83
2022/07/26 03:46:36;;;;;;;8.90;2.00;;;;;;;;;;6158215;23;20018;-82
2022/07/26 03:49:06;;;;;;;7.32;2.00;;;;;;;;;;6160982;23;20033;-83
2022/07/26 03:51:39;;;;;;;6.65;2.00;;;;;;;;;;6160587;23;20761;-83
2022/07/26 03:54:10;;;;;;;9.13;2.00;;;;;;;;;;6161873;23;20021;-82
2022/07/26 03:56:39;;;;;;;11.15;2.25;;;;;;;;;;6160475;23;20519;-83
2022/07/26 03:59:08;;;;;;;9.05;2.08;;;;;;;;;;6160354;23;20045;-84
2022/07/26 04:01:40;;;;;;;5.97;1.88;;;;;;;;;;6186704;23;20060;-82
2022/07/26 04:04:10;;;;;;;7.38;2.00;;;;;;;;;;6160753;23;20018;-83
2022/07/26 04:06:38;;;;;;;5.38;1.90;;;;;;;;;;6155343;23;20152;-83
2022/07/26 04:09:06;;;;;;;6.95;1.67;;;;;;;;;;6156122;23;20022;-83
2022/07/26 04:11:34;;;;;;;8.20;2.00;;;;;;;;;;6154482;23;20586;-82
2022/07/26 04:14:02;;;;;;;8.57;1.75;;;;;;;;;;6155090;23;20444;-82
2022/07/26 04:16:31;;;;;;;5.72;2.03;;;;;;;;;;6155258;23;20014;-83
2022/07/26 04:18:58;;;;;;;6.82;1.88;;;;;;;;;;6155836;23;20029;-83
2022/07/26 04:21:26;;;;;;;9.15;2.30;;;;;;;;;;6155970;23;20018;-83
2022/07/26 04:23:53;;;;;;;4.22;1.63;;;;;;;;;;6155130;23;20018;-82
2022/07/26 04:26:21;;;;;;;12.13;2.03;;;;;;;;;;6155203;23;20020;-83
2022/07/26 04:28:48;;;;;;;6.18;1.85;;;;;;;;;;6155986;23;20029;-83
2022/07/26 04:31:18;;;;;;;10.40;2.03;;;;;;;;;;6155227;23;20045;-83
2022/07/26 04:33:46;;;;;;;9.70;2.15;;;;;;;;;;6155636;23;20107;-82
2022/07/26 04:36:27;;;;;;;6.07;1.83;;;;;;;;;;6155963;23;20104;-83
2022/07/26 04:39:01;;;;;;;15.77;3.15;;;;;;;;;;6155619;23;20620;-83
2022/07/26 04:41:28;;;;;;;5.20;2.05;;;;;;;;;;6155916;23;20018;-83
2022/07/26 04:43:56;;;;;;;6.72;2.10;;;;;;;;;;6154074;23;20018;-83
2022/07/26 04:46:24;;;;;;;5.10;1.98;;;;;;;;;;6154186;23;20022;-82
2022/07/26 04:48:52;;;;;;;7.60;2.45;;;;;;;;;;6155372;23;20018;-83
2022/07/26 04:51:19;;;;;;;9.52;2.20;;;;;;;;;;6154908;23;20022;-83
2022/07/26 04:53:48;;;;;;;7.47;2.00;;;;;;;;;;6154226;23;20085;-82
2022/07/26 04:56:15;;;;;;;4.15;1.90;;;;;;;;;;6155240;23;20092;-83
2022/07/26 04:58:45;;;;;;;8.20;2.53;;;;;;;;;;6155453;23;20018;-82
2022/07/26 05:01:12;;;;;;;5.78;1.70;;;;;;;;;;6154582;23;20032;-83
2022/07/26 05:03:40;;;;;;;8.00;2.25;;;;;;;;;;6155024;23;20049;-83
2022/07/26 05:06:17;;;;;;;7.05;1.85;;;;;;;;;;6156811;23;21129;-82
2022/07/26 05:09:00;;;;;;;9.30;2.20;;;;;;;;;;6162475;23;20037;-82
2022/07/26 05:11:28;;;;;;;7.15;2.08;;;;;;;;;;6160079;23;20021;-82
2022/07/26 05:13:56;;;;;;;10.80;2.40;;;;;;;;;;6160805;23;20025;-82
2022/07/26 05:16:23;;;;;;;8.98;2.20;;;;;;;;;;6160225;23;20018;-85
2022/07/26 05:18:54;;;;;;;7.97;1.80;;;;;;;;;;6161448;23;20032;-82
2022/07/26 05:21:26;;;;;;;12.82;2.50;;;;;;;;;;6160371;23;20758;-83
2022/07/26 05:23:54;;;;;;;14.82;2.30;;;;;;;;;;6159683;23;20025;-82
2022/07/26 05:26:35;;;;;;;9.88;2.20;;;;;;;;;;6160177;23;20021;-82
2022/07/26 05:29:03;;;;;;;10.68;2.70;;;;;;;;;;6160681;23;20542;-82
2022/07/26 05:31:30;;;;;;;6.15;1.88;;;;;;;;;;6159103;23;20608;-82
2022/07/26 05:34:01;;;;;;;8.05;1.60;;;;;;;;;;6158279;23;20463;-83
2022/07/26 05:36:29;;;;;;;10.88;1.95;;;;;;;;;;6160152;23;20073;-82
2022/07/26 05:38:56;;;;;;;7.28;2.20;;;;;;;;;;6159283;23;20060;-83
2022/07/26 05:41:24;;;;;;;11.30;2.20;;;;;;;;;;6158220;23;20400;-82
2022/07/26 05:43:51;;;;;;;11.68;2.40;;;;;;;;;;6158395;23;20444;-83
2022/07/26 05:46:22;;;;;;;8.20;2.05;;;;;;;;;;6157928;23;20029;-83
2022/07/26 05:48:51;;;;;;;3.92;1.70;;;;;;;;;;6160043;23;20455;-83
2022/07/26 05:51:19;;;;;;;6.97;2.03;;;;;;;;;;6158320;23;20367;-82
2022/07/26 05:53:47;;;;;;;8.52;2.00;;;;;;;;;;6159651;23;20026;-82
2022/07/26 05:56:19;;;;;;;5.07;1.80;;;;;;;;;;6159339;23;20077;-83
2022/07/26 05:58:46;;;;;;;5.82;1.67;;;;;;;;;;6160260;23;20029;-83
2022/07/26 06:01:14;;;;;;;9.73;2.83;;;;;;;;;;6161131;23;20017;-82
2022/07/26 06:03:45;;;;;;;6.25;1.67;;;;;;;;;;6162895;23;20467;-82
2022/07/26 06:06:12;;;;;;;11.65;2.17;;;;;;;;;;6161661;23;20025;-82
2022/07/26 06:08:40;;;;;;;3.40;1.85;;;;;;;;;;6161765;23;20082;-82
2022/07/26 06:11:07;;;;;;;6.82;2.00;;;;;;;;;;6161984;23;20029;-83
2022/07/26 06:13:34;;;;;;;6.93;1.85;;;;;;;;;;6161230;23;20045;-82
2022/07/26 06:16:02;;;;;;;5.53;1.83;;;;;;;;;;6160766;23;20017;-83
2022/07/26 06:18:29;;;;;;;7.50;1.77;;;;;;;;;;6158970;23;20021;-83
2022/07/26 06:20:57;;;;;;;10.35;1.60;;;;;;;;;;6160527;23;20025;-82
2022/07/26 06:23:28;;;;;;;11.23;1.80;;;;;;;;;;6162273;23;20013;-82
2022/07/26 06:26:03;;;;;;;7.50;2.00;;;;;;;;;;6160099;23;20591;-83
2022/07/26 06:28:30;;;;;;;11.75;2.28;;;;;;;;;;6161830;23;20025;-84
2022/07/26 06:31:01;;;;;;;10.80;1.88;;;;;;;;;;6160264;23;20018;-84
2022/07/26 06:33:33;;;;;;;12.18;2.42;;;;;;;;;;6161573;23;20093;-83
2022/07/26 06:36:00;;;;;;;10.00;2.40;;;;;;;;;;6161793;23;20014;-82
2022/07/26 06:38:28;;;;;;;11.05;2.15;;;;;;;;;;6161041;23;20022;-83
2022/07/26 06:40:56;;;;;;;11.95;2.85;;;;;;;;;;6159503;23;20041;-83
2022/07/26 06:43:24;;;;;;;12.18;2.45;;;;;;;;;;6157992;23;20021;-83
2022/07/26 06:45:52;;;;;;;13.23;2.50;;;;;;;;;;6157327;23;20014;-83
2022/07/26 06:48:19;;;;;;;8.20;1.98;;;;;;;;;;6156228;23;20028;-83
2022/07/26 06:50:47;;;;;;;7.18;1.83;;;;;;;;;;6156388;23;20335;-84
2022/07/26 06:53:17;;;;;;;4.10;1.77;;;;;;;;;;6156230;23;20018;-82
2022/07/26 06:55:45;;;;;;;6.68;2.00;;;;;;;;;;6157965;23;20052;-83
2022/07/26 06:58:20;;;;;;;10.43;1.98;;;;;;;;;;6158078;23;20022;-83
2022/07/26 07:00:47;;;;;;;6.13;1.80;;;;;;;;;;6156450;23;20018;-83
2022/07/26 07:03:15;;;;;;;8.23;1.67;;;;;;;;;;6157182;23;20013;-83
2022/07/26 07:05:43;;;;;;;9.57;1.80;;;;;;;;;;6158294;23;20022;-82
2022/07/26 07:08:18;;;;;;;5.85;1.83;;;;;;;;;;6152847;23;20293;-83
2022/07/26 07:10:46;;;;;;;12.60;2.00;;;;;;;;;;6153504;23;20055;-83
2022/07/26 07:13:16;;;;;;;15.45;2.33;;;;;;;;;;6154035;23;20022;-82
2022/07/26 07:15:47;;;;;;;9.45;1.90;;;;;;;;;;6152025;23;20703;-83
2022/07/26 07:18:15;;;;;;;9.15;2.00;;;;;;;;;;6152500;23;20026;-82
2022/07/26 07:20:42;;;;;;;9.82;2.03;;;;;;;;;;6155190;23;20385;-83
2022/07/26 07:23:10;;;;;;;8.50;2.17;;;;;;;;;;6152444;23;20073;-83
2022/07/26 07:25:41;;;;;;;14.43;2.70;;;;;;;;;;6153631;23;20467;-83
2022/07/26 07:28:11;;;;;;;11.52;1.88;;;;;;;;;;6151951;23;20049;-83
2022/07/26 07:30:41;;;;;;;11.40;2.03;;;;;;;;;;6152930;23;20088;-83
2022/07/26 07:33:11;;;;;;;10.88;2.13;;;;;;;;;;6153532;23;20089;-82
2022/07/26 07:35:49;;;;;;;8.82;1.80;;;;;;;;;;6153897;23;20034;-82
2022/07/26 07:38:16;;;;;;;6.70;1.25;;;;;;;;;;6152992;23;20073;-82
2022/07/26 07:40:45;;;;;;;10.07;1.50;;;;;;;;;;6153065;23;20041;-82
2022/07/26 07:43:12;;;;;;;8.48;1.67;;;;;;;;;;6152314;23;20146;-81
2022/07/26 07:45:40;;;;;;;8.65;2.03;;;;;;;;;;6150710;23;20049;-83
2022/07/26 07:48:07;;;;;;;6.32;1.52;;;;;;;;;;6150296;23;20103;-84
2022/07/26 07:50:38;;;;;;;8.95;1.70;;;;;;;;;;6151138;23;20029;-83
2022/07/26 07:53:05;;;;;;;6.18;1.50;;;;;;;;;;6153129;23;20089;-83
2022/07/26 07:55:32;;;;;;;12.13;2.28;;;;;;;;;;6150061;23;20028;-83
2022/07/26 07:58:10;;;;;;;6.80;1.27;;;;;;;;;;6147996;23;20026;-82
2022/07/26 08:00:37;;;;;;;7.93;1.52;;;;;;;;;;6147267;23;20018;-81
2022/07/26 08:03:05;;;;;;;4.78;1.10;;;;;;;;;;6148034;23;20022;-83
2022/07/26 08:05:34;;;;;;;6.97;1.23;;;;;;;;;;6149027;23;20022;-83
2022/07/26 08:08:06;;;;;;;5.80;1.40;;;;;;;;;;6174613;23;20491;-82
2022/07/26 08:10:34;;;;;;;5.03;1.00;;;;;;;;;;6157386;23;20750;-81
2022/07/26 08:13:07;;;;;;;4.60;1.10;;;;;;;;;;6154348;23;20021;-81
2022/07/26 08:15:35;;;;;;;9.15;1.20;;;;;;;;;;6155381;23;20459;-81
2022/07/26 08:18:05;;;;;;;4.28;1.00;;;;;;;;;;6156289;23;20026;-81
2022/07/26 08:20:34;;;;;;;9.32;1.20;;;;;;;;;;6156943;23;20018;-81
2022/07/26 08:23:05;;;;;;;3.78;1.00;;;;;;;;;;6154826;23;20017;-81
2022/07/26 08:25:32;;;;;;;3.83;0.80;;;;;;;;;;6156406;23;20025;-81
2022/07/26 08:27:59;;;;;;;3.42;1.30;;;;;;;;;;6155910;23;20025;-81
2022/07/26 08:30:30;;;;;;;4.65;1.00;;;;;;;;;;6156054;23;20024;-82
2022/07/26 08:32:57;;;;;;;7.20;1.10;;;;;;;;;;6157217;23;20707;-81
2022/07/26 08:35:25;;;;;;;5.15;1.30;;;;;;;;;;6155820;23;21062;-82
2022/07/26 08:37:52;;;;;;;8.95;0.88;;;;;;;;;;6158815;23;20028;-81
2022/07/26 08:40:21;;;;;;;5.43;1.10;;;;;;;;;;6181060;23;20025;-82
2022/07/26 08:42:49;;;;;;;2.20;1.10;;;;;;;;;;6156915;23;20073;-81
2022/07/26 08:45:26;;;;;;;4.30;1.20;;;;;;;;;;6159306;23;20851;-81
2022/07/26 08:47:56;;;;;;;3.00;0.80;;;;;;;;;;6156052;23;20479;-81
2022/07/26 08:50:44;;;;;;;3.13;0.90;;;;;;;;;;6158402;23;20029;-81
2022/07/26 08:53:12;;;;;;;4.35;1.08;;;;;;;;;;6155633;23;20021;-81
2022/07/26 08:55:39;;;;;;;9.02;1.20;;;;;;;;;;6178929;23;20017;-81
2022/07/26 08:58:27;;;;;;;2.83;0.85;;;;;;;;;;6156801;23;20026;-82
2022/07/26 09:01:07;;;;;;;1.85;0.60;;;;;;;;;;6153232;23;20464;-82
2022/07/26 09:03:37;;;;;;;3.97;1.40;;;;;;;;;;6151373;23;20467;-82
2022/07/26 09:06:12;;;;;;;4.78;0.82;;;;;;;;;;6153909;23;20021;-81
2022/07/26 09:08:40;;;;;;;4.03;1.00;;;;;;;;;;6156931;23;20032;-80
2022/07/26 09:11:27;;;;;;;3.85;0.80;;;;;;;;;;6152527;23;20022;-82
2022/07/26 09:14:08;;;;;;;8.05;1.20;;;;;;;;;;6154598;23;20014;-83
2022/07/26 09:16:38;;;;;;;6.03;1.58;;;;;;;;;;6156121;23;20781;-82
2022/07/26 09:19:24;;;;;;;2.95;0.95;;;;;;;;;;6154683;23;20084;-81
2022/07/26 09:21:52;;;;;;;3.97;1.27;;;;;;;;;;6154540;23;20459;-82
2022/07/26 09:24:48;;;;;;;2.55;0.90;;;;;;;;;;6154746;23;20022;-85
2022/07/26 09:27:17;;;;;;;2.78;0.63;;;;;;;;;;6129875;23;20018;-82
2022/07/26 09:29:45;;;;;;;5.15;0.93;;;;;;;;;;6154567;23;20022;-82
2022/07/26 09:32:17;;;;;;;5.32;1.02;;;;;;;;;;6155472;23;20041;-83
2022/07/26 09:34:46;;;;;;;6.55;0.90;;;;;;;;;;6158462;23;20068;-82
2022/07/26 09:37:34;;;;;;;4.10;0.90;;;;;;;;;;6155019;23;20017;-81
2022/07/26 09:40:08;;;;;;;4.45;1.10;;;;;;;;;;6157478;23;20028;-81
2022/07/26 09:42:38;;;;;;;4.22;0.82;;;;;;;;;;6154769;23;20021;-82
2022/07/26 09:45:15;;;;;;;6.72;1.13;;;;;;;;;;6154471;23;20021;-81
2022/07/26 09:47:43;;;;;;;7.55;1.10;;;;;;;;;;6153400;23;20028;-81
2022/07/26 09:50:15;;;;;;;7.22;1.13;;;;;;;;;;6153462;23;20022;-81
2022/07/26 09:53:02;;;;;;;4.57;1.17;;;;;;;;;;6151119;23;20033;-81
2022/07/26 09:55:31;;;;;;;4.72;1.10;;;;;;;;;;6179154;23;20017;-81
2022/07/26 09:58:14;;;;;;;4.93;1.30;;;;;;;;;;6157729;23;20633;-81
2022/07/26 10:00:42;;;;;;;7.45;1.08;;;;;;;;;;6154870;23;20467;-82
2022/07/26 10:03:10;;;;;;;6.75;1.15;;;;;;;;;;6152046;23;20116;-82
2022/07/26 10:05:38;;;;;;;6.45;0.95;;;;;;;;;;6151877;23;20084;-82
2022/07/26 10:08:07;;;;;;;5.00;1.02;;;;;;;;;;6147638;23;20420;-82
2022/07/26 10:10:36;;;;;;;9.27;1.20;;;;;;;;;;6149040;23;20026;-83
2022/07/26 10:13:04;;;;;;;5.65;0.98;;;;;;;;;;6147196;23;20022;-82
2022/07/26 10:15:34;;;;;;;3.95;1.45;;;;;;;;;;6147633;23;20022;-81
2022/07/26 10:18:07;;;;;;;3.30;0.90;;;;;;;;;;6148952;23;20022;-83
2022/07/26 10:20:39;;;;;;;5.38;1.13;;;;;;;;;;6149364;23;20022;-82
2022/07/26 10:23:25;;;;;;;6.88;1.27;;;;;;;;;;6145499;23;20025;-83
2022/07/26 10:26:13;;;;;;;7.13;0.90;;;;;;;;;;6148165;23;20360;-82
2022/07/26 10:28:56;;;;;;;6.75;1.30;;;;;;;;;;6146712;23;20018;-82
2022/07/26 10:31:29;;;;;;;7.32;1.05;;;;;;;;;;6148859;23;20022;-82
2022/07/26 10:33:57;;;;;;;5.20;0.98;;;;;;;;;;6154250;23;20025;-81
2022/07/26 10:36:26;;;;;;;4.80;1.00;;;;;;;;;;6147496;23;20024;-82
2022/07/26 10:39:03;;;;;;;4.55;0.90;;;;;;;;;;6150193;23;20010;-82
2022/07/26 10:41:33;;;;;;;4.95;0.93;;;;;;;;;;6152503;23;20022;-82
2022/07/26 10:44:17;;;;;;;7.55;0.80;;;;;;;;;;6147656;23;20088;-82
2022/07/26 10:46:55;;;;;;;6.93;1.08;;;;;;;;;;6149082;23;20505;-82
2022/07/26 10:49:32;;;;;;;7.13;1.40;;;;;;;;;;6146851;23;20810;-82
2022/07/26 10:52:07;;;;;;;3.88;0.73;;;;;;;;;;6145614;23;20041;-82
2022/07/26 10:54:53;;;;;;;6.35;0.93;;;;;;;;;;6143060;23;20022;-83
2022/07/26 10:57:30;;;;;;;4.07;0.82;;;;;;;;;;6142355;23;20026;-82
2022/07/26 10:59:58;;;;;;;5.90;1.10;;;;;;;;;;6144851;23;20496;-84
2022/07/26 11:02:34;;;;;;;5.68;1.10;;;;;;;;;;6145502;23;20476;-83
2022/07/26 11:05:15;;;;;;;8.43;1.67;;;;;;;;;;6154240;23;20033;-84
2022/07/26 11:14:55;;;;;;;6.32;1.58;;;;;;;;;;6058590;23;20027;-86
2022/07/26 11:17:23;;;;;;;4.05;1.02;;;;;;;;;;6036111;23;20019;-86
2022/07/26 11:23:50;;;;;;;6.72;1.10;;;;;;;;;;6061417;23;20027;-86
2022/07/26 11:27:33;;;;;;;6.00;1.27;;;;;;;;;;5965260;23;20759;-86
2022/07/26 11:30:12;;;;;;;8.07;1.70;;;;;;;;;;5935442;24;20021;-85
2022/07/26 11:33:08;;;;;;;8.07;1.52;;;;;;;;;;5965448;23;20104;-85
2022/07/26 11:35:57;;;;;;;10.57;1.50;;;;;;;;;;5966808;23;20074;-86
2022/07/26 11:38:43;;;;;;;3.25;0.98;;;;;;;;;;5970400;23;20025;-86
2022/07/26 11:41:53;;;;;;;3.70;1.25;;;;;;;;;;5972298;23;20071;-86
2022/07/26 11:44:45;;;;;;;3.72;1.10;;;;;;;;;;5996401;23;20023;-86
2022/07/26 11:47:23;;;;;;;12.57;1.63;;;;;;;;;;6008879;23;20023;-85
2022/07/26 11:50:19;;;;;;;6.20;0.93;;;;;;;;;;6046930;23;20026;-85
2022/07/26 11:52:55;;;;;;;9.25;1.10;;;;;;;;;;6092793;23;20199;-86
2022/07/26 11:55:33;;;;;;;4.57;1.00;;;;;;;;;;6090203;23;20435;-85
2022/07/26 12:01:10;;;;;;;9.20;1.33;;;;;;;;;;6118944;23;20023;-86
2022/07/26 12:03:59;;;;;;;9.05;1.52;;;;;;;;;;6082992;23;20598;-86
2022/07/26 12:06:53;;;;;;;8.70;1.38;;;;;;;;;;6076253;23;20027;-86
2022/07/26 12:09:49;;;;;;;4.20;1.02;;;;;;;;;;6052504;23;20022;-85
2022/07/26 12:13:06;;;;;;;4.97;1.15;;;;;;;;;;6176007;23;20025;-88
2022/07/26 12:16:12;;;;;;;7.90;1.30;;;;;;;;;;5999429;23;20030;-87
2022/07/26 12:19:02;;;;;;;9.95;1.70;;;;;;;;;;6038543;23;20808;-87
2022/07/26 12:25:20;;;;;;;;;;;;;;;;;;;;;
2022/07/26 12:28:51;;;;;;;5.88;1.25;;;;;;;;;;6071473;23;20044;-87
2022/07/26 12:31:22;;;;;;;9.35;1.45;;;;;;;;;;6051295;23;20023;-86
2022/07/26 12:34:25;;;;;;;8.15;1.73;;;;;;;;;;5939313;24;20848;-87
2022/07/26 12:37:32;;;;;;;;;;;;;;;;;;;;;
2022/07/26 12:40:25;;;;;;;6.38;1.42;;;;;;;;;;5926699;24;20029;-86
2022/07/26 12:50:18;;;;;;;12.32;1.55;;;;;;;;;;5968701;23;20028;-86
2022/07/26 13:00:09;;;;;;;6.10;1.65;;;;;;;;;;6107886;23;20830;-87
2022/07/26 13:10:04;;;;;;;5.68;1.45;;;;;;;;;;5903379;24;20018;-87
2022/07/26 13:16:38;;;;;;;8.45;1.77;;;;;;;;;;5805377;24;20015;-87
2022/07/26 13:20:20;;;;;;;10.15;1.40;;;;;;;;;;5829320;24;20027;-86
2022/07/26 13:25:32;;;;;;;;;;;;;;;;;;;;;
2022/07/26 13:28:17;;;;;;;11.63;1.63;;;;;;;;;;5916762;24;20029;-87
2022/07/26 13:34:29;;;;;;;;;;;;;;;;;;;;;
2022/07/26 13:40:38;;;;;;;10.73;1.75;;;;;;;;;;5925647;24;20005;-87
2022/07/26 13:43:12;;;;;;;7.45;1.73;;;;;;;;;;5939786;24;20018;-89
2022/07/26 13:45:44;;;;;;;7.00;1.40;;;;;;;;;;5970225;23;20518;-82
2022/07/26 13:48:11;;;;;;;10.10;2.17;;;;;;;;;;5980509;23;20020;-82
2022/07/26 13:50:41;;;;;;;10.88;2.33;;;;;;;;;;6109833;23;20121;-83
2022/07/26 13:53:09;;;;;;;7.20;1.63;;;;;;;;;;6121786;23;20026;-82
2022/07/26 13:55:36;;;;;;;6.10;1.30;;;;;;;;;;6124221;23;20018;-83
2022/07/26 13:58:05;;;;;;;7.72;1.80;;;;;;;;;;6147697;23;20073;-83
2022/07/26 14:00:36;;;;;;;10.05;1.80;;;;;;;;;;6153500;23;20040;-82
2022/07/26 14:03:04;;;;;;;9.10;1.45;;;;;;;;;;6123702;23;20026;-82
2022/07/26 14:05:34;;;;;;;7.53;1.50;;;;;;;;;;6153186;23;20088;-83
2022/07/26 14:08:01;;;;;;;8.05;1.77;;;;;;;;;;6130810;23;21429;-83
2022/07/26 14:10:32;;;;;;;6.43;1.80;;;;;;;;;;6123664;23;20551;-82
2022/07/26 14:13:02;;;;;;;8.50;1.40;;;;;;;;;;6123931;23;20061;-83
2022/07/26 14:15:29;;;;;;;10.80;1.67;;;;;;;;;;6124065;23;20075;-83
2022/07/26 14:18:00;;;;;;;8.43;1.52;;;;;;;;;;6126060;23;20022;-83
2022/07/26 14:20:29;;;;;;;9.10;1.42;;;;;;;;;;6124756;23;20026;-83
2022/07/26 14:22:59;;;;;;;6.18;1.55;;;;;;;;;;6123073;23;20024;-83
2022/07/26 14:25:27;;;;;;;8.38;1.48;;;;;;;;;;6124418;23;20060;-83
2022/07/26 14:27:54;;;;;;;4.90;1.10;;;;;;;;;;6125132;23;20452;-84
2022/07/26 14:30:27;;;;;;;9.27;1.30;;;;;;;;;;6158464;23;20104;-86
2022/07/26 14:33:08;;;;;;;8.38;1.65;;;;;;;;;;6146249;23;20141;-86
2022/07/26 14:35:40;;;;;;;9.00;1.60;;;;;;;;;;6136669;23;20101;-86
2022/07/26 14:38:07;;;;;;;5.97;1.40;;;;;;;;;;6165201;23;20069;-86
2022/07/26 14:40:37;;;;;;;6.75;1.40;;;;;;;;;;6159980;23;20037;-86
2022/07/26 14:43:14;;;;;;;;;;;;;;;;;;;;;
2022/07/26 14:45:46;;;;;;;7.57;1.63;;;;;;;;;;6163971;23;20095;-87
2022/07/26 14:48:18;;;;;;;6.47;1.27;;;;;;;;;;6164365;23;20117;-86
2022/07/26 14:51:08;;;;;;;6.97;1.45;;;;;;;;;;6143679;23;20026;-86
2022/07/26 14:53:36;;;;;;;3.88;1.33;;;;;;;;;;6144186;23;20022;-86
2022/07/26 14:56:24;;;;;;;7.22;1.10;;;;;;;;;;6149676;23;20022;-87
2022/07/26 14:59:11;;;;;;;4.88;1.33;;;;;;;;;;6152369;23;20041;-87
2022/07/26 15:01:42;;;;;;;6.85;1.25;;;;;;;;;;6143598;23;20034;-82
2022/07/26 15:04:17;;;;;;;8.88;1.33;;;;;;;;;;6138616;23;20022;-87
2022/07/26 15:06:45;;;;;;;5.20;1.10;;;;;;;;;;6135355;23;20002;-86
2022/07/26 15:09:12;;;;;;;6.65;1.38;;;;;;;;;;6189257;23;20073;-86
2022/07/26 15:11:40;;;;;;;5.53;1.48;;;;;;;;;;6164129;23;20243;-86
2022/07/26 15:14:08;;;;;;;3.95;1.20;;;;;;;;;;6195744;23;19997;-86
2022/07/26 15:16:35;;;;;;;7.57;1.27;;;;;;;;;;6192265;23;20017;-86
2022/07/26 15:19:06;;;;;;;8.25;1.40;;;;;;;;;;6193897;23;20021;-88
2022/07/26 15:21:35;;;;;;;7.03;1.60;;;;;;;;;;6173689;23;20026;-87
2022/07/26 15:24:07;;;;;;;7.45;1.23;;;;;;;;;;6189873;23;20113;-88
2022/07/26 15:26:35;;;;;;;6.75;1.33;;;;;;;;;;6194731;23;20092;-89
2022/07/26 15:29:02;;;;;;;7.82;1.35;;;;;;;;;;6168369;23;20055;-87
2022/07/26 15:31:33;;;;;;;8.40;1.40;;;;;;;;;;6159169;23;20025;-86
2022/07/26 15:34:03;;;;;;;6.05;1.10;;;;;;;;;;6185238;23;20032;-86
2022/07/26 15:36:30;;;;;;;7.82;1.23;;;;;;;;;;6183000;23;20112;-88
2022/07/26 15:39:00;;;;;;;6.68;1.85;;;;;;;;;;6187021;23;20022;-87
2022/07/26 15:41:43;;;;;;;5.75;1.15;;;;;;;;;;6186883;23;20057;-87
2022/07/26 15:44:10;;;;;;;8.27;1.30;;;;;;;;;;6184920;23;20584;-88
2022/07/26 15:46:38;;;;;;;3.92;1.10;;;;;;;;;;6159632;23;20021;-87
2022/07/26 15:49:08;;;;;;;5.22;1.08;;;;;;;;;;6188522;23;20021;-87
2022/07/26 15:51:36;;;;;;;8.20;1.60;;;;;;;;;;6186009;23;20030;-87
2022/07/26 15:54:08;;;;;;;7.47;1.38;;;;;;;;;;6187096;23;20032;-86
2022/07/26 15:56:38;;;;;;;4.55;1.15;;;;;;;;;;6184594;23;20022;-87
2022/07/26 15:59:09;;;;;;;6.45;0.98;;;;;;;;;;6186082;23;20472;-88
2022/07/26 16:01:47;;;;;;;;;;;;;;;;;;;;;
2022/07/26 16:04:17;;;;;;;10.82;1.25;;;;;;;;;;6187189;23;20097;-83
2022/07/26 16:06:46;;;;;;;11.63;1.45;;;;;;;;;;6185156;23;20018;-84
2022/07/26 16:09:14;;;;;;;7.53;1.55;;;;;;;;;;6182951;23;20021;-84